sensor_id;sensor_type;location;lat;lon;timestamp;temperature;humidity
68098;DHT22;54886;47.036;15.466;2023-02-15T00:03:28;1.43;79.40
68098;DHT22;54886;47.036;15.466;2023-02-15T00:05:56;1.44;79.35
68098;DHT22;54886;47.036;15.466;2023-02-15T00:08:22;1.43;80.64
68098;DHT22;54886;47.036;15.466;2023-02-15T00:10:48;1.45;80.58
68098;DHT22;54886;47.036;15.466;2023-02-15T00:13:13;1.48;79.09
68098;DHT22;54886;47.036;15.466;2023-02-15T00:19:01;1.50;80.07
68098;DHT22;54886;47.036;15.466;2023-02-15T00:21:29;1.54;79.47
68098;DHT22;54886;47.036;15.466;2023-02-15T00:23:56;1.52;78.95
68098;DHT22;54886;47.036;15.466;2023-02-15T00:26:21;1.54;79.61
68098;DHT22;54886;47.036;15.466;2023-02-15T00:28:47;1.56;78.96
68098;DHT22;54886;47.036;15.466;2023-02-15T00:31:13;1.58;78.71
68098;DHT22;54886;47.036;15.466;2023-02-15T00:33:39;1.58;79.35
68098;DHT22;54886;47.036;15.466;2023-02-15T00:36:07;1.56;80.80
68098;DHT22;54886;47.036;15.466;2023-02-15T00:38:33;1.56;81.17
68098;DHT22;54886;47.036;15.466;2023-02-15T00:41:01;1.61;80.52
68098;DHT22;54886;47.036;15.466;2023-02-15T00:43:28;1.62;80.91
68098;DHT22;54886;47.036;15.466;2023-02-15T00:49:15;1.65;80.02
68098;DHT22;54886;47.036;15.466;2023-02-15T00:55:03;1.69;79.69
68098;DHT22;54886;47.036;15.466;2023-02-15T00:57:28;1.68;79.80
68098;DHT22;54886;47.036;15.466;2023-02-15T00:59:54;1.66;79.89
68098;DHT22;54886;47.036;15.466;2023-02-15T01:02:20;1.71;80.28
68098;DHT22;54886;47.036;15.466;2023-02-15T01:04:45;1.72;80.21
68098;DHT22;54886;47.036;15.466;2023-02-15T01:07:11;1.72;80.26
68098;DHT22;54886;47.036;15.466;2023-02-15T01:09:36;1.74;79.56
68098;DHT22;54886;47.036;15.466;2023-02-15T01:15:24;1.76;79.73
68098;DHT22;54886;47.036;15.466;2023-02-15T01:17:50;1.79;79.73
68098;DHT22;54886;47.036;15.466;2023-02-15T01:20:24;1.82;80.57
68098;DHT22;54886;47.036;15.466;2023-02-15T01:22:50;1.82;80.30
68098;DHT22;54886;47.036;15.466;2023-02-15T01:25:17;1.81;79.88
68098;DHT22;54886;47.036;15.466;2023-02-15T01:27:43;1.85;80.23
68098;DHT22;54886;47.036;15.466;2023-02-15T01:33:30;1.85;79.71
68098;DHT22;54886;47.036;15.466;2023-02-15T01:35:58;1.87;80.05
68098;DHT22;54886;47.036;15.466;2023-02-15T01:38:24;1.87;79.68
68098;DHT22;54886;47.036;15.466;2023-02-15T01:40:51;1.89;79.82
68098;DHT22;54886;47.036;15.466;2023-02-15T01:43:18;1.91;79.76
68098;DHT22;54886;47.036;15.466;2023-02-15T01:45:45;1.92;79.64
68098;DHT22;54886;47.036;15.466;2023-02-15T01:51:36;1.96;79.26
68098;DHT22;54886;47.036;15.466;2023-02-15T01:54:27;1.93;79.18
68098;DHT22;54886;47.036;15.466;2023-02-15T02:00:16;1.96;79.47
68098;DHT22;54886;47.036;15.466;2023-02-15T02:06:04;1.98;79.58
68098;DHT22;54886;47.036;15.466;2023-02-15T02:11:59;1.99;79.51
68098;DHT22;54886;47.036;15.466;2023-02-15T02:14:25;1.99;79.83
68098;DHT22;54886;47.036;15.466;2023-02-15T02:17:15;2.00;79.89
68098;DHT22;54886;47.036;15.466;2023-02-15T02:32:47;2.05;79.08
68098;DHT22;54886;47.036;15.466;2023-02-15T02:44:42;2.10;79.51
68098;DHT22;54886;47.036;15.466;2023-02-15T02:53:30;2.11;79.33
68098;DHT22;54886;47.036;15.466;2023-02-15T02:56:06;2.11;79.36
68098;DHT22;54886;47.036;15.466;2023-02-15T02:58:40;2.13;79.08
68098;DHT22;54886;47.036;15.466;2023-02-15T03:03:52;2.11;79.63
68098;DHT22;54886;47.036;15.466;2023-02-15T03:06:24;2.16;80.03
68098;DHT22;54886;47.036;15.466;2023-02-15T03:09:04;2.14;79.80
68098;DHT22;54886;47.036;15.466;2023-02-15T03:11:32;2.14;79.67
68098;DHT22;54886;47.036;15.466;2023-02-15T03:13:58;2.13;80.15
68098;DHT22;54886;47.036;15.466;2023-02-15T03:16:24;2.19;79.94
68098;DHT22;54886;47.036;15.466;2023-02-15T03:19:14;2.20;80.04
68098;DHT22;54886;47.036;15.466;2023-02-15T03:21:49;2.19;79.81
68098;DHT22;54886;47.036;15.466;2023-02-15T03:24:33;2.20;79.81
68098;DHT22;54886;47.036;15.466;2023-02-15T03:27:03;2.20;80.14
68098;DHT22;54886;47.036;15.466;2023-02-15T03:29:30;2.21;79.84
68098;DHT22;54886;47.036;15.466;2023-02-15T03:32:00;2.21;79.83
68098;DHT22;54886;47.036;15.466;2023-02-15T03:34:27;2.23;79.67
68098;DHT22;54886;47.036;15.466;2023-02-15T03:40:17;2.26;81.42
68098;DHT22;54886;47.036;15.466;2023-02-15T03:46:27;2.26;80.72
68098;DHT22;54886;47.036;15.466;2023-02-15T03:49:03;2.24;80.55
68098;DHT22;54886;47.036;15.466;2023-02-15T03:54:52;2.31;80.40
68098;DHT22;54886;47.036;15.466;2023-02-15T03:57:22;2.31;80.42
68098;DHT22;54886;47.036;15.466;2023-02-15T04:00:19;2.31;80.22
68098;DHT22;54886;47.036;15.466;2023-02-15T04:05:32;2.31;80.94
68098;DHT22;54886;47.036;15.466;2023-02-15T04:07:58;2.33;80.37
68098;DHT22;54886;47.036;15.466;2023-02-15T04:10:24;2.33;80.88
68098;DHT22;54886;47.036;15.466;2023-02-15T04:16:30;2.36;80.58
68098;DHT22;54886;47.036;15.466;2023-02-15T04:18:55;2.34;80.94
68098;DHT22;54886;47.036;15.466;2023-02-15T04:25:01;2.34;81.13
68098;DHT22;54886;47.036;15.466;2023-02-15T04:31:00;2.33;81.15
68098;DHT22;54886;47.036;15.466;2023-02-15T04:33:27;2.31;81.58
68098;DHT22;54886;47.036;15.466;2023-02-15T04:35:53;2.33;80.94
68098;DHT22;54886;47.036;15.466;2023-02-15T04:41:40;2.34;81.00
68098;DHT22;54886;47.036;15.466;2023-02-15T04:44:06;2.36;80.96
68098;DHT22;54886;47.036;15.466;2023-02-15T04:46:31;2.34;80.95
68098;DHT22;54886;47.036;15.466;2023-02-15T04:52:19;2.36;80.80
68098;DHT22;54886;47.036;15.466;2023-02-15T04:58:06;2.31;80.53
68098;DHT22;54886;47.036;15.466;2023-02-15T05:03:54;2.30;81.40
68098;DHT22;54886;47.036;15.466;2023-02-15T05:06:20;2.28;81.31
68098;DHT22;54886;47.036;15.466;2023-02-15T05:12:07;2.26;81.83
68098;DHT22;54886;47.036;15.466;2023-02-15T05:17:54;2.23;81.60
68098;DHT22;54886;47.036;15.466;2023-02-15T05:20:20;2.23;81.56
68098;DHT22;54886;47.036;15.466;2023-02-15T05:22:45;2.27;81.39
68098;DHT22;54886;47.036;15.466;2023-02-15T05:25:11;2.26;81.28
68098;DHT22;54886;47.036;15.466;2023-02-15T05:27:55;2.24;81.57
68098;DHT22;54886;47.036;15.466;2023-02-15T05:30:39;2.19;82.17
68098;DHT22;54886;47.036;15.466;2023-02-15T05:33:06;2.21;81.93
68098;DHT22;54886;47.036;15.466;2023-02-15T05:35:32;2.21;81.74
68098;DHT22;54886;47.036;15.466;2023-02-15T05:37:58;2.19;82.28
68098;DHT22;54886;47.036;15.466;2023-02-15T05:40:24;2.17;82.47
68098;DHT22;54886;47.036;15.466;2023-02-15T05:42:49;2.21;81.51
68098;DHT22;54886;47.036;15.466;2023-02-15T05:48:36;2.27;81.40
68098;DHT22;54886;47.036;15.466;2023-02-15T05:51:08;2.27;81.02
68098;DHT22;54886;47.036;15.466;2023-02-15T05:53:36;2.28;80.49
68098;DHT22;54886;47.036;15.466;2023-02-15T05:56:04;2.28;80.85
68098;DHT22;54886;47.036;15.466;2023-02-15T05:58:32;2.28;81.37
68098;DHT22;54886;47.036;15.466;2023-02-15T06:00:58;2.28;81.05
68098;DHT22;54886;47.036;15.466;2023-02-15T06:03:24;2.27;81.25
68098;DHT22;54886;47.036;15.466;2023-02-15T06:05:51;2.30;81.32
68098;DHT22;54886;47.036;15.466;2023-02-15T06:08:17;2.31;81.12
68098;DHT22;54886;47.036;15.466;2023-02-15T06:14:11;2.33;80.96
68098;DHT22;54886;47.036;15.466;2023-02-15T06:16:37;2.30;80.67
68098;DHT22;54886;47.036;15.466;2023-02-15T06:19:03;2.33;80.55
68098;DHT22;54886;47.036;15.466;2023-02-15T06:21:30;2.34;80.37
68098;DHT22;54886;47.036;15.466;2023-02-15T06:23:55;2.37;80.48
68098;DHT22;54886;47.036;15.466;2023-02-15T06:29:43;2.38;80.67
68098;DHT22;54886;47.036;15.466;2023-02-15T06:32:09;2.38;80.44
68098;DHT22;54886;47.036;15.466;2023-02-15T06:34:34;2.40;80.62
68098;DHT22;54886;47.036;15.466;2023-02-15T06:37:00;2.37;81.04
68098;DHT22;54886;47.036;15.466;2023-02-15T06:39:25;2.37;81.12
68098;DHT22;54886;47.036;15.466;2023-02-15T06:45:13;2.40;81.38
68098;DHT22;54886;47.036;15.466;2023-02-15T06:47:39;2.34;82.33
68098;DHT22;54886;47.036;15.466;2023-02-15T06:53:26;2.41;82.04
68098;DHT22;54886;47.036;15.466;2023-02-15T06:59:13;2.38;82.46
68098;DHT22;54886;47.036;15.466;2023-02-15T07:05:01;2.41;82.12
68098;DHT22;54886;47.036;15.466;2023-02-15T07:10:49;2.45;81.15
68098;DHT22;54886;47.036;15.466;2023-02-15T07:13:15;2.45;82.23
68098;DHT22;54886;47.036;15.466;2023-02-15T07:15:41;2.45;81.43
68098;DHT22;54886;47.036;15.466;2023-02-15T07:21:28;2.47;80.94
68098;DHT22;54886;47.036;15.466;2023-02-15T07:23:57;2.51;81.22
68098;DHT22;54886;47.036;15.466;2023-02-15T07:26:23;2.52;80.99
68098;DHT22;54886;47.036;15.466;2023-02-15T07:28:49;2.54;80.60
68098;DHT22;54886;47.036;15.466;2023-02-15T07:34:36;2.54;80.51
68098;DHT22;54886;47.036;15.466;2023-02-15T07:37:02;2.58;80.45
68098;DHT22;54886;47.036;15.466;2023-02-15T07:39:27;2.59;80.78
68098;DHT22;54886;47.036;15.466;2023-02-15T07:41:53;2.59;80.84
68098;DHT22;54886;47.036;15.466;2023-02-15T07:44:19;2.61;81.06
68098;DHT22;54886;47.036;15.466;2023-02-15T07:46:45;2.58;81.87
68098;DHT22;54886;47.036;15.466;2023-02-15T07:49:10;2.62;81.41
68098;DHT22;54886;47.036;15.466;2023-02-15T07:51:36;2.65;81.15
68098;DHT22;54886;47.036;15.466;2023-02-15T07:57:23;2.69;80.89
68098;DHT22;54886;47.036;15.466;2023-02-15T07:59:49;2.71;80.72
68098;DHT22;54886;47.036;15.466;2023-02-15T08:05:36;2.72;80.58
68098;DHT22;54886;47.036;15.466;2023-02-15T08:11:26;2.75;80.99
68098;DHT22;54886;47.036;15.466;2023-02-15T08:14:12;2.76;80.90
68098;DHT22;54886;47.036;15.466;2023-02-15T08:16:43;2.81;80.56
68098;DHT22;54886;47.036;15.466;2023-02-15T08:22:31;2.78;80.20
68098;DHT22;54886;47.036;15.466;2023-02-15T08:24:56;2.83;79.99
68098;DHT22;54886;47.036;15.466;2023-02-15T08:27:22;2.83;80.09
68098;DHT22;54886;47.036;15.466;2023-02-15T08:33:13;2.89;80.41
68098;DHT22;54886;47.036;15.466;2023-02-15T08:39:03;2.91;80.50
68098;DHT22;54886;47.036;15.466;2023-02-15T08:41:34;2.92;80.40
68098;DHT22;54886;47.036;15.466;2023-02-15T08:47:21;2.97;80.01
68098;DHT22;54886;47.036;15.466;2023-02-15T08:53:08;2.97;80.23
68098;DHT22;54886;47.036;15.466;2023-02-15T08:58:55;3.09;79.51
68098;DHT22;54886;47.036;15.466;2023-02-15T09:01:28;3.07;79.78
68098;DHT22;54886;47.036;15.466;2023-02-15T09:04:12;3.10;79.98
68098;DHT22;54886;47.036;15.466;2023-02-15T09:10:00;3.13;79.64
68098;DHT22;54886;47.036;15.466;2023-02-15T09:12:25;3.10;79.65
68098;DHT22;54886;47.036;15.466;2023-02-15T09:14:51;3.14;79.80
68098;DHT22;54886;47.036;15.466;2023-02-15T09:17:16;3.13;79.54
68098;DHT22;54886;47.036;15.466;2023-02-15T09:19:42;3.17;79.01
68098;DHT22;54886;47.036;15.466;2023-02-15T09:25:29;3.21;79.39
68098;DHT22;54886;47.036;15.466;2023-02-15T09:27:55;3.23;78.97
68098;DHT22;54886;47.036;15.466;2023-02-15T09:30:20;3.24;79.07
68098;DHT22;54886;47.036;15.466;2023-02-15T09:32:47;3.26;79.28
68098;DHT22;54886;47.036;15.466;2023-02-15T09:35:12;3.26;79.27
68098;DHT22;54886;47.036;15.466;2023-02-15T09:37:38;3.30;79.12
68098;DHT22;54886;47.036;15.466;2023-02-15T09:40:04;3.37;79.34
68098;DHT22;54886;47.036;15.466;2023-02-15T09:46:08;3.38;79.10
68098;DHT22;54886;47.036;15.466;2023-02-15T09:48:39;3.39;78.75
68098;DHT22;54886;47.036;15.466;2023-02-15T10:06:37;3.48;79.39
68098;DHT22;54886;47.036;15.466;2023-02-15T10:31:50;3.66;79.15
68098;DHT22;54886;47.036;15.466;2023-02-15T10:59:15;3.94;78.29
68098;DHT22;54886;47.036;15.466;2023-02-15T11:04:48;3.96;77.96
68098;DHT22;54886;47.036;15.466;2023-02-15T11:07:25;3.94;77.85
68098;DHT22;54886;47.036;15.466;2023-02-15T11:13:22;4.03;77.86
68098;DHT22;54886;47.036;15.466;2023-02-15T11:19:27;4.09;77.45
68098;DHT22;54886;47.036;15.466;2023-02-15T11:21:59;4.13;77.32
68098;DHT22;54886;47.036;15.466;2023-02-15T11:24:28;4.13;77.72
68098;DHT22;54886;47.036;15.466;2023-02-15T11:27:00;4.18;77.25
68098;DHT22;54886;47.036;15.466;2023-02-15T11:30:15;4.14;76.97
68098;DHT22;54886;47.036;15.466;2023-02-15T11:32:44;4.14;77.21
68098;DHT22;54886;47.036;15.466;2023-02-15T11:38:33;4.21;77.79
68098;DHT22;54886;47.036;15.466;2023-02-15T11:50:24;4.33;76.82
68098;DHT22;54886;47.036;15.466;2023-02-15T11:52:52;4.34;76.73
68098;DHT22;54886;47.036;15.466;2023-02-15T11:55:22;4.40;76.57
68098;DHT22;54886;47.036;15.466;2023-02-15T11:58:01;4.41;76.61
68098;DHT22;54886;47.036;15.466;2023-02-15T12:06:54;4.40;76.12
68098;DHT22;54886;47.036;15.466;2023-02-15T12:15:13;4.42;76.48
68098;DHT22;54886;47.036;15.466;2023-02-15T12:21:07;4.52;76.11
68098;DHT22;54886;47.036;15.466;2023-02-15T12:27:04;4.54;75.84
68098;DHT22;54886;47.036;15.466;2023-02-15T12:29:40;4.47;75.89
68098;DHT22;54886;47.036;15.466;2023-02-15T12:35:30;4.55;76.05
68098;DHT22;54886;47.036;15.466;2023-02-15T12:41:26;4.57;75.62
68098;DHT22;54886;47.036;15.466;2023-02-15T12:49:43;4.68;75.60
68098;DHT22;54886;47.036;15.466;2023-02-15T12:54:44;4.71;75.27
68098;DHT22;54886;47.036;15.466;2023-02-15T12:57:29;4.76;75.06
68098;DHT22;54886;47.036;15.466;2023-02-15T13:00:04;4.72;75.10
68098;DHT22;54886;47.036;15.466;2023-02-15T13:02:43;4.76;75.04
68098;DHT22;54886;47.036;15.466;2023-02-15T13:08:33;4.77;75.07
68098;DHT22;54886;47.036;15.466;2023-02-15T13:11:04;4.79;75.12
68098;DHT22;54886;47.036;15.466;2023-02-15T13:17:02;4.76;75.25
68098;DHT22;54886;47.036;15.466;2023-02-15T13:22:53;4.77;75.48
68098;DHT22;54886;47.036;15.466;2023-02-15T13:28:46;4.77;75.55
68098;DHT22;54886;47.036;15.466;2023-02-15T13:31:18;4.79;75.60
68098;DHT22;54886;47.036;15.466;2023-02-15T13:33:51;4.76;75.63
68098;DHT22;54886;47.036;15.466;2023-02-15T13:42:26;4.82;75.59
68098;DHT22;54886;47.036;15.466;2023-02-15T14:03:57;4.87;75.17
68098;DHT22;54886;47.036;15.466;2023-02-15T14:15:50;4.75;75.39
68098;DHT22;54886;47.036;15.466;2023-02-15T14:18:27;4.75;75.29
68098;DHT22;54886;47.036;15.466;2023-02-15T14:27:30;4.72;75.63
68098;DHT22;54886;47.036;15.466;2023-02-15T14:30:10;4.75;75.41
68098;DHT22;54886;47.036;15.466;2023-02-15T14:32:47;4.77;75.62
68098;DHT22;54886;47.036;15.466;2023-02-15T14:35:17;4.76;75.62
68098;DHT22;54886;47.036;15.466;2023-02-15T14:50:41;4.73;75.57
68098;DHT22;54886;47.036;15.466;2023-02-15T15:10:55;4.59;76.04
68098;DHT22;54886;47.036;15.466;2023-02-15T15:16:48;4.62;76.09
68098;DHT22;54886;47.036;15.466;2023-02-15T15:51:50;4.38;76.29
68098;DHT22;54886;47.036;15.466;2023-02-15T15:57:39;4.34;76.19
68098;DHT22;54886;47.036;15.466;2023-02-15T16:03:28;4.30;75.89
68098;DHT22;54886;47.036;15.466;2023-02-15T16:05:54;4.27;75.76
68098;DHT22;54886;47.036;15.466;2023-02-15T16:15:19;4.21;75.39
68098;DHT22;54886;47.036;15.466;2023-02-15T16:17:49;4.20;75.46
68098;DHT22;54886;47.036;15.466;2023-02-15T16:20:18;4.18;75.45
68098;DHT22;54886;47.036;15.466;2023-02-15T16:22:54;4.13;75.33
68098;DHT22;54886;47.036;15.466;2023-02-15T16:25:34;4.09;75.23
68098;DHT22;54886;47.036;15.466;2023-02-15T16:28:10;4.06;75.41
68098;DHT22;54886;47.036;15.466;2023-02-15T16:30:37;4.04;75.45
68098;DHT22;54886;47.036;15.466;2023-02-15T16:33:11;4.02;74.95
68098;DHT22;54886;47.036;15.466;2023-02-15T16:35:39;3.96;75.03
68098;DHT22;54886;47.036;15.466;2023-02-15T16:38:05;3.93;75.07
68098;DHT22;54886;47.036;15.466;2023-02-15T16:40:49;3.86;75.01
68098;DHT22;54886;47.036;15.466;2023-02-15T16:43:21;3.83;75.06
68098;DHT22;54886;47.036;15.466;2023-02-15T16:45:47;3.82;75.15
68098;DHT22;54886;47.036;15.466;2023-02-15T16:48:18;3.75;74.85
68098;DHT22;54886;47.036;15.466;2023-02-15T16:50:51;3.74;74.86
68098;DHT22;54886;47.036;15.466;2023-02-15T16:53:21;3.69;74.85
68098;DHT22;54886;47.036;15.466;2023-02-15T16:55:50;3.65;74.65
68098;DHT22;54886;47.036;15.466;2023-02-15T16:58:17;3.61;75.02
68098;DHT22;54886;47.036;15.466;2023-02-15T17:00:45;3.61;75.08
68098;DHT22;54886;47.036;15.466;2023-02-15T17:08:19;3.52;74.64
68098;DHT22;54886;47.036;15.466;2023-02-15T17:11:11;3.48;74.42
68098;DHT22;54886;47.036;15.466;2023-02-15T17:13:38;3.44;74.51
68098;DHT22;54886;47.036;15.466;2023-02-15T17:18:39;3.37;74.97
68098;DHT22;54886;47.036;15.466;2023-02-15T17:21:12;3.34;74.99
68098;DHT22;54886;47.036;15.466;2023-02-15T17:23:43;3.23;75.58
68098;DHT22;54886;47.036;15.466;2023-02-15T17:26:23;3.23;75.47
68098;DHT22;54886;47.036;15.466;2023-02-15T17:28:54;3.17;74.92
68098;DHT22;54886;47.036;15.466;2023-02-15T17:31:25;3.09;74.60
68098;DHT22;54886;47.036;15.466;2023-02-15T17:33:55;3.07;75.61
68098;DHT22;54886;47.036;15.466;2023-02-15T17:36:24;2.99;75.63
68098;DHT22;54886;47.036;15.466;2023-02-15T17:41:25;2.96;75.09
68098;DHT22;54886;47.036;15.466;2023-02-15T17:43:50;2.95;75.67
68098;DHT22;54886;47.036;15.466;2023-02-15T17:46:16;2.93;75.17
68098;DHT22;54886;47.036;15.466;2023-02-15T17:48:46;2.89;75.05
68098;DHT22;54886;47.036;15.466;2023-02-15T17:51:13;2.85;75.09
68098;DHT22;54886;47.036;15.466;2023-02-15T17:53:39;2.82;74.70
68098;DHT22;54886;47.036;15.466;2023-02-15T17:56:05;2.69;76.49
68098;DHT22;54886;47.036;15.466;2023-02-15T17:58:39;2.61;77.14
68098;DHT22;54886;47.036;15.466;2023-02-15T18:01:15;2.58;75.49
68098;DHT22;54886;47.036;15.466;2023-02-15T18:04:00;2.49;75.12
68098;DHT22;54886;47.036;15.466;2023-02-15T18:06:44;2.45;75.91
68098;DHT22;54886;47.036;15.466;2023-02-15T18:09:28;2.41;75.60
68098;DHT22;54886;47.036;15.466;2023-02-15T18:12:28;2.36;75.39
68098;DHT22;54886;47.036;15.466;2023-02-15T18:14:54;2.37;75.57
68098;DHT22;54886;47.036;15.466;2023-02-15T18:17:41;2.36;75.34
68098;DHT22;54886;47.036;15.466;2023-02-15T18:22:42;2.28;75.29
68098;DHT22;54886;47.036;15.466;2023-02-15T18:25:16;2.27;75.01
68098;DHT22;54886;47.036;15.466;2023-02-15T18:27:42;2.27;74.98
68098;DHT22;54886;47.036;15.466;2023-02-15T18:30:13;2.20;75.17
68098;DHT22;54886;47.036;15.466;2023-02-15T18:32:39;2.16;75.03
68098;DHT22;54886;47.036;15.466;2023-02-15T18:35:05;2.07;77.46
68098;DHT22;54886;47.036;15.466;2023-02-15T18:37:32;2.09;76.36
68098;DHT22;54886;47.036;15.466;2023-02-15T18:39:58;2.07;75.48
68098;DHT22;54886;47.036;15.466;2023-02-15T18:42:31;2.05;77.60
68098;DHT22;54886;47.036;15.466;2023-02-15T18:47:37;1.95;77.53
68098;DHT22;54886;47.036;15.466;2023-02-15T18:50:03;1.98;76.46
68098;DHT22;54886;47.036;15.466;2023-02-15T18:52:32;1.99;75.88
68098;DHT22;54886;47.036;15.466;2023-02-15T18:55:02;1.95;76.20
68098;DHT22;54886;47.036;15.466;2023-02-15T18:57:28;1.93;76.13
68098;DHT22;54886;47.036;15.466;2023-02-15T18:59:54;1.91;75.91
68098;DHT22;54886;47.036;15.466;2023-02-15T19:02:20;1.85;75.58
68098;DHT22;54886;47.036;15.466;2023-02-15T19:04:45;1.86;75.67
68098;DHT22;54886;47.036;15.466;2023-02-15T19:07:21;1.82;76.14
68098;DHT22;54886;47.036;15.466;2023-02-15T19:09:50;1.79;76.00
68098;DHT22;54886;47.036;15.466;2023-02-15T19:12:16;1.75;75.99
68098;DHT22;54886;47.036;15.466;2023-02-15T19:14:44;1.74;75.74
68098;DHT22;54886;47.036;15.466;2023-02-15T19:17:14;1.66;76.05
68098;DHT22;54886;47.036;15.466;2023-02-15T19:19:40;1.68;76.32
68098;DHT22;54886;47.036;15.466;2023-02-15T19:22:05;1.66;76.47
68098;DHT22;54886;47.036;15.466;2023-02-15T19:24:36;1.65;76.89
68098;DHT22;54886;47.036;15.466;2023-02-15T19:27:05;1.62;76.64
68098;DHT22;54886;47.036;15.466;2023-02-15T19:29:31;1.62;76.42
68098;DHT22;54886;47.036;15.466;2023-02-15T19:31:56;1.56;76.48
68098;DHT22;54886;47.036;15.466;2023-02-15T19:34:22;1.55;76.50
68098;DHT22;54886;47.036;15.466;2023-02-15T19:36:50;1.52;76.86
68098;DHT22;54886;47.036;15.466;2023-02-15T19:39:22;1.50;76.65
68098;DHT22;54886;47.036;15.466;2023-02-15T19:41:47;1.44;76.47
68098;DHT22;54886;47.036;15.466;2023-02-15T19:44:13;1.43;76.39
68098;DHT22;54886;47.036;15.466;2023-02-15T19:46:38;1.38;76.30
68098;DHT22;54886;47.036;15.466;2023-02-15T19:49:04;1.34;76.08
68098;DHT22;54886;47.036;15.466;2023-02-15T19:51:29;1.30;75.96
68098;DHT22;54886;47.036;15.466;2023-02-15T19:53:55;1.27;76.16
68098;DHT22;54886;47.036;15.466;2023-02-15T19:56:23;1.22;76.42
68098;DHT22;54886;47.036;15.466;2023-02-15T19:58:49;1.20;76.27
68098;DHT22;54886;47.036;15.466;2023-02-15T20:01:16;1.16;76.53
68098;DHT22;54886;47.036;15.466;2023-02-15T20:03:42;1.19;76.70
68098;DHT22;54886;47.036;15.466;2023-02-15T20:06:14;1.10;76.66
68098;DHT22;54886;47.036;15.466;2023-02-15T20:08:40;1.09;77.08
68098;DHT22;54886;47.036;15.466;2023-02-15T20:11:11;1.06;76.63
68098;DHT22;54886;47.036;15.466;2023-02-15T20:13:37;1.07;76.91
68098;DHT22;54886;47.036;15.466;2023-02-15T20:16:02;1.06;77.06
68098;DHT22;54886;47.036;15.466;2023-02-15T20:18:32;1.02;76.79
68098;DHT22;54886;47.036;15.466;2023-02-15T20:20:57;0.97;76.87
68098;DHT22;54886;47.036;15.466;2023-02-15T20:23:27;0.95;76.57
68098;DHT22;54886;47.036;15.466;2023-02-15T20:25:56;0.93;76.58
68098;DHT22;54886;47.036;15.466;2023-02-15T20:28:23;0.92;76.75
68098;DHT22;54886;47.036;15.466;2023-02-15T20:30:49;0.88;76.83
68098;DHT22;54886;47.036;15.466;2023-02-15T20:33:15;0.86;76.78
68098;DHT22;54886;47.036;15.466;2023-02-15T20:35:42;0.85;76.77
68098;DHT22;54886;47.036;15.466;2023-02-15T20:38:21;0.82;77.03
68098;DHT22;54886;47.036;15.466;2023-02-15T20:40:49;0.81;76.54
68098;DHT22;54886;47.036;15.466;2023-02-15T20:43:33;0.73;76.71
68098;DHT22;54886;47.036;15.466;2023-02-15T20:45:59;0.73;76.84
68098;DHT22;54886;47.036;15.466;2023-02-15T20:48:24;0.75;77.31
68098;DHT22;54886;47.036;15.466;2023-02-15T20:50:50;0.73;76.97
68098;DHT22;54886;47.036;15.466;2023-02-15T20:53:18;0.69;76.77
68098;DHT22;54886;47.036;15.466;2023-02-15T20:55:45;0.64;76.55
68098;DHT22;54886;47.036;15.466;2023-02-15T20:58:40;0.60;76.82
68098;DHT22;54886;47.036;15.466;2023-02-15T21:01:10;0.60;76.58
68098;DHT22;54886;47.036;15.466;2023-02-15T21:03:36;0.57;76.77
68098;DHT22;54886;47.036;15.466;2023-02-15T21:06:01;0.54;76.71
68098;DHT22;54886;47.036;15.466;2023-02-15T21:08:27;0.54;77.03
68098;DHT22;54886;47.036;15.466;2023-02-15T21:10:53;0.55;77.32
68098;DHT22;54886;47.036;15.466;2023-02-15T21:15:53;0.50;76.95
68098;DHT22;54886;47.036;15.466;2023-02-15T21:18:27;0.44;76.68
68098;DHT22;54886;47.036;15.466;2023-02-15T21:20:56;0.36;76.71
68098;DHT22;54886;47.036;15.466;2023-02-15T21:23:27;0.36;76.98
68098;DHT22;54886;47.036;15.466;2023-02-15T21:25:56;0.36;76.90
68098;DHT22;54886;47.036;15.466;2023-02-15T21:28:23;0.36;77.12
68098;DHT22;54886;47.036;15.466;2023-02-15T21:30:50;0.28;77.20
68098;DHT22;54886;47.036;15.466;2023-02-15T21:33:16;0.28;77.10
68098;DHT22;54886;47.036;15.466;2023-02-15T21:35:53;0.27;77.00
68098;DHT22;54886;47.036;15.466;2023-02-15T21:38:21;0.23;76.80
68098;DHT22;54886;47.036;15.466;2023-02-15T21:40:49;0.20;76.94
68098;DHT22;54886;47.036;15.466;2023-02-15T21:43:19;0.19;77.07
68098;DHT22;54886;47.036;15.466;2023-02-15T21:46:14;0.13;76.74
68098;DHT22;54886;47.036;15.466;2023-02-15T21:48:59;0.14;77.38
68098;DHT22;54886;47.036;15.466;2023-02-15T21:51:26;0.10;76.82
68098;DHT22;54886;47.036;15.466;2023-02-15T21:54:15;0.10;76.89
68098;DHT22;54886;47.036;15.466;2023-02-15T21:56:41;0.07;77.37
68098;DHT22;54886;47.036;15.466;2023-02-15T21:59:09;0.06;77.55
68098;DHT22;54886;47.036;15.466;2023-02-15T22:01:35;0.10;77.53
68098;DHT22;54886;47.036;15.466;2023-02-15T22:04:01;0.10;77.39
68098;DHT22;54886;47.036;15.466;2023-02-15T22:06:27;0.05;77.13
68098;DHT22;54886;47.036;15.466;2023-02-15T22:08:52;-0.01;77.38
68098;DHT22;54886;47.036;15.466;2023-02-15T22:11:19;-0.01;77.43
68098;DHT22;54886;47.036;15.466;2023-02-15T22:13:47;-0.02;77.42
68098;DHT22;54886;47.036;15.466;2023-02-15T22:16:17;-0.05;77.20
68098;DHT22;54886;47.036;15.466;2023-02-15T22:18:44;-0.10;77.50
68098;DHT22;54886;47.036;15.466;2023-02-15T22:21:10;-0.14;77.30
68098;DHT22;54886;47.036;15.466;2023-02-15T22:23:37;-0.12;77.49
68098;DHT22;54886;47.036;15.466;2023-02-15T22:26:07;-0.19;77.11
68098;DHT22;54886;47.036;15.466;2023-02-15T22:28:40;-0.19;77.24
68098;DHT22;54886;47.036;15.466;2023-02-15T22:31:14;-0.23;77.37
68098;DHT22;54886;47.036;15.466;2023-02-15T22:33:40;-0.21;77.54
68098;DHT22;54886;47.036;15.466;2023-02-15T22:36:05;-0.21;77.39
68098;DHT22;54886;47.036;15.466;2023-02-15T22:38:31;-0.19;77.50
68098;DHT22;54886;47.036;15.466;2023-02-15T22:41:00;-0.26;77.17
68098;DHT22;54886;47.036;15.466;2023-02-15T22:43:40;-0.30;77.10
68098;DHT22;54886;47.036;15.466;2023-02-15T22:46:18;-0.36;77.39
68098;DHT22;54886;47.036;15.466;2023-02-15T22:48:45;-0.36;77.45
68098;DHT22;54886;47.036;15.466;2023-02-15T22:51:16;-0.42;77.37
68098;DHT22;54886;47.036;15.466;2023-02-15T22:53:41;-0.49;77.38
68098;DHT22;54886;47.036;15.466;2023-02-15T22:56:12;-0.48;77.81
68098;DHT22;54886;47.036;15.466;2023-02-15T22:58:41;-0.48;77.63
68098;DHT22;54886;47.036;15.466;2023-02-15T23:01:34;-0.43;77.89
68098;DHT22;54886;47.036;15.466;2023-02-15T23:03:57;-0.35;78.07
68098;DHT22;54886;47.036;15.466;2023-02-15T23:06:23;-0.38;77.98
68098;DHT22;54886;47.036;15.466;2023-02-15T23:08:48;-0.38;78.04
68098;DHT22;54886;47.036;15.466;2023-02-15T23:11:14;-0.42;77.45
68098;DHT22;54886;47.036;15.466;2023-02-15T23:13:40;-0.49;77.36
68098;DHT22;54886;47.036;15.466;2023-02-15T23:16:12;-0.52;77.91
68098;DHT22;54886;47.036;15.466;2023-02-15T23:18:40;-0.52;78.39